createdAt,value
2018-02-25T00:00:05.975Z,12.43
2018-02-25T00:02:36.071Z,11.97
2018-02-25T00:05:05.969Z,13.17
2018-02-25T00:07:41.536Z,12.37
2018-02-25T00:10:11.327Z,13.17
2018-02-25T00:12:40.909Z,12.10
2018-02-25T00:15:10.529Z,14.00
2018-02-25T00:17:40.109Z,13.60
2018-02-25T00:20:09.818Z,12.50
2018-02-25T00:22:40.232Z,12.87
2018-02-25T00:25:18.928Z,14.13
2018-02-25T00:27:48.494Z,13.17
2018-02-25T00:30:18.060Z,13.50
2018-02-25T00:33:01.670Z,12.67
2018-02-25T00:35:32.518Z,12.30
2018-02-25T00:38:05.234Z,12.87
2018-02-25T00:40:34.817Z,11.33
2018-02-25T00:43:04.839Z,12.20
2018-02-25T00:45:48.456Z,11.67
2018-02-25T00:48:18.998Z,12.47
2018-02-25T00:50:55.256Z,12.90
2018-02-25T00:53:27.638Z,11.80
2018-02-25T00:55:57.676Z,12.63
2018-02-25T01:01:11.153Z,11.80
2018-02-25T01:03:40.958Z,12.73
2018-02-25T01:06:10.533Z,12.03
2018-02-25T01:08:47.910Z,14.00
2018-02-25T01:11:36.792Z,12.90
2018-02-25T01:14:06.360Z,12.33
2018-02-25T01:16:35.937Z,13.20
2018-02-25T01:19:05.568Z,12.30
2018-02-25T01:21:35.354Z,12.60
2018-02-25T01:24:05.477Z,12.53
2018-02-25T01:26:35.234Z,12.83
2018-02-25T01:29:04.988Z,12.60
2018-02-25T01:31:35.324Z,11.93
2018-02-25T01:34:04.936Z,12.37
2018-02-25T01:36:36.499Z,12.50
2018-02-25T01:39:07.096Z,11.80
2018-02-25T01:41:36.683Z,12.10
2018-02-25T01:44:06.508Z,12.40
2018-02-25T01:46:36.146Z,11.83
2018-02-25T01:49:07.158Z,12.63
2018-02-25T01:51:36.794Z,12.20
2018-02-25T01:54:06.398Z,13.30
2018-02-25T01:56:42.096Z,12.13
2018-02-25T01:59:11.667Z,13.00
2018-02-25T02:01:49.248Z,13.07
2018-02-25T02:04:18.810Z,13.87
2018-02-25T02:06:53.269Z,13.17
2018-02-25T02:09:22.898Z,11.63
2018-02-25T02:11:52.452Z,14.23
2018-02-25T02:14:22.020Z,15.23
2018-02-25T02:16:52.880Z,14.70
2018-02-25T02:19:22.538Z,15.10
2018-02-25T02:21:52.447Z,15.30
2018-02-25T02:24:34.832Z,14.30
2018-02-25T02:27:04.421Z,14.60
2018-02-25T02:29:34.026Z,15.90
2018-02-25T02:32:03.681Z,14.57
2018-02-25T02:34:35.108Z,15.07
2018-02-25T02:37:04.756Z,15.00
2018-02-25T02:39:34.352Z,15.53
2018-02-25T02:42:03.988Z,15.20
2018-02-25T02:44:33.550Z,15.80
2018-02-25T02:47:10.155Z,14.10
2018-02-25T02:49:39.718Z,15.43
2018-02-25T02:52:09.499Z,15.77
2018-02-25T02:54:39.709Z,15.50
2018-02-25T02:57:09.264Z,15.57
2018-02-25T02:59:38.783Z,16.07
2018-02-25T03:02:14.807Z,15.70
2018-02-25T03:04:45.788Z,15.20
2018-02-25T03:07:17.368Z,15.57
2018-02-25T03:09:47.627Z,15.53
2018-02-25T03:12:17.349Z,14.40
2018-02-25T03:14:46.953Z,14.90
2018-02-25T03:17:16.550Z,13.37
2018-02-25T03:19:46.118Z,14.13
2018-02-25T03:22:15.634Z,13.70
2018-02-25T03:24:45.483Z,14.30
2018-02-25T03:27:15.070Z,14.80
2018-02-25T03:29:44.788Z,15.37
2018-02-25T03:32:14.416Z,15.80
2018-02-25T03:34:43.984Z,15.03
2018-02-25T03:37:13.734Z,16.73
2018-02-25T03:39:43.324Z,16.97
2018-02-25T03:42:12.977Z,16.50
2018-02-25T03:44:42.597Z,17.07
2018-02-25T03:47:12.141Z,17.17
2018-02-25T03:49:41.987Z,17.60
2018-02-25T03:52:11.804Z,16.67
2018-02-25T03:54:41.390Z,16.53
2018-02-25T03:57:11.420Z,16.60
2018-02-25T03:59:41.360Z,16.40
2018-02-25T04:02:10.978Z,16.80
2018-02-25T04:04:40.546Z,15.77
2018-02-25T04:07:10.175Z,14.63
2018-02-25T04:10:00.788Z,14.33
2018-02-25T04:12:30.444Z,16.37
2018-02-25T04:15:13.089Z,15.80
2018-02-25T04:17:42.678Z,16.20
2018-02-25T04:20:12.259Z,18.10
2018-02-25T04:22:44.904Z,16.27
2018-02-25T04:25:14.527Z,17.60
2018-02-25T04:27:44.358Z,18.40
2018-02-25T04:30:13.901Z,17.90
2018-02-25T04:32:43.481Z,16.37
2018-02-25T04:35:21.116Z,15.77
2018-02-25T04:37:50.733Z,17.13
2018-02-25T04:40:28.348Z,17.07
2018-02-25T04:43:03.984Z,16.50
2018-02-25T04:45:33.548Z,16.50
2018-02-25T04:48:03.496Z,16.03
2018-02-25T04:50:41.246Z,18.00
2018-02-25T04:53:10.904Z,16.97
2018-02-25T04:55:40.561Z,17.47
2018-02-25T04:58:10.129Z,18.90
2018-02-25T05:00:39.715Z,16.50
2018-02-25T05:03:09.821Z,16.30
2018-02-25T05:05:39.451Z,16.13
2018-02-25T05:08:09.086Z,16.40
2018-02-25T05:10:39.107Z,17.10
2018-02-25T05:13:08.728Z,17.93
2018-02-25T05:15:38.596Z,17.30
2018-02-25T05:18:08.287Z,16.23
2018-02-25T05:20:52.980Z,16.87
2018-02-25T05:23:22.566Z,16.70
2018-02-25T05:25:52.154Z,17.03
2018-02-25T05:28:29.464Z,19.97
2018-02-25T05:30:59.388Z,19.27
2018-02-25T05:33:28.937Z,18.70
2018-02-25T05:35:58.541Z,18.10
2018-02-25T05:38:28.695Z,20.83
2018-02-25T05:40:59.114Z,18.97
2018-02-25T05:43:29.018Z,21.70
2018-02-25T05:45:59.022Z,21.47
2018-02-25T05:48:36.555Z,20.27
2018-02-25T05:51:06.146Z,21.47
2018-02-25T05:53:35.740Z,20.77
2018-02-25T05:56:05.299Z,19.40
2018-02-25T05:58:34.887Z,19.90
2018-02-25T06:01:04.870Z,18.77
2018-02-25T06:03:34.440Z,19.43
2018-02-25T06:06:04.094Z,20.60
2018-02-25T06:08:33.685Z,19.70
2018-02-25T06:11:19.998Z,20.00
2018-02-25T06:13:49.600Z,18.33
2018-02-25T06:16:20.067Z,20.57
2018-02-25T06:18:49.638Z,17.90
2018-02-25T06:21:19.312Z,20.47
2018-02-25T06:23:48.970Z,20.53
2018-02-25T06:26:18.575Z,18.70
2018-02-25T06:28:48.781Z,18.03
2018-02-25T06:31:18.417Z,18.37
2018-02-25T06:33:47.992Z,18.50
2018-02-25T06:36:17.664Z,18.50
2018-02-25T06:38:47.591Z,18.70
2018-02-25T06:41:17.222Z,19.23
2018-02-25T06:43:53.037Z,17.70
2018-02-25T06:46:23.096Z,18.70
2018-02-25T06:48:52.659Z,17.90
2018-02-25T06:51:22.246Z,18.60
2018-02-25T06:54:03.841Z,18.20
2018-02-25T06:56:33.684Z,17.27
2018-02-25T06:59:04.428Z,18.97
2018-02-25T07:01:33.982Z,18.30
2018-02-25T07:04:10.423Z,16.47
2018-02-25T07:06:39.996Z,17.80
2018-02-25T07:09:09.598Z,18.90
2018-02-25T07:11:39.572Z,19.10
2018-02-25T07:14:09.260Z,17.17
2018-02-25T07:16:38.854Z,18.37
2018-02-25T07:19:16.496Z,18.30
2018-02-25T07:21:46.098Z,20.80
2018-02-25T07:24:30.991Z,19.27
2018-02-25T07:27:00.530Z,19.57
2018-02-25T07:29:30.305Z,20.07
2018-02-25T07:31:59.899Z,18.90
2018-02-25T07:34:35.493Z,18.30
2018-02-25T07:37:05.117Z,20.47
2018-02-25T07:39:34.704Z,19.50
2018-02-25T07:42:04.301Z,18.90
2018-02-25T07:44:33.924Z,18.50
2018-02-25T07:47:03.523Z,19.20
2018-02-25T07:49:34.063Z,18.87
2018-02-25T07:52:07.492Z,17.77
2018-02-25T07:54:37.181Z,18.20
2018-02-25T07:57:08.509Z,17.70
2018-02-25T07:59:38.889Z,18.30
2018-02-25T08:02:08.478Z,18.70
2018-02-25T08:04:42.299Z,19.30
2018-02-25T08:07:11.840Z,19.13
2018-02-25T08:09:41.706Z,19.83
2018-02-25T08:12:19.768Z,20.10
2018-02-25T08:14:50.663Z,18.83
2018-02-25T08:17:20.195Z,18.30
2018-02-25T08:19:49.784Z,19.13
2018-02-25T08:22:29.485Z,19.00
2018-02-25T08:24:59.117Z,18.53
2018-02-25T08:27:34.725Z,18.87
2018-02-25T08:30:17.955Z,19.97
2018-02-25T08:32:47.692Z,18.93
2018-02-25T08:35:19.523Z,19.10
2018-02-25T08:38:03.067Z,18.93
2018-02-25T08:40:46.008Z,18.23
2018-02-25T08:43:15.895Z,17.50
2018-02-25T08:45:51.665Z,18.23
2018-02-25T08:48:21.283Z,18.00
2018-02-25T08:50:57.138Z,18.77
2018-02-25T08:53:26.915Z,20.67
2018-02-25T08:55:56.511Z,18.17
2018-02-25T08:58:26.070Z,18.63
2018-02-25T09:01:09.804Z,17.73
2018-02-25T09:03:39.397Z,20.47
2018-02-25T09:06:08.952Z,18.90
2018-02-25T09:08:39.446Z,17.10
2018-02-25T09:11:09.458Z,19.07
2018-02-25T09:13:39.111Z,17.57
2018-02-25T09:16:08.706Z,17.80
2018-02-25T09:18:39.219Z,18.90
2018-02-25T09:21:08.818Z,20.17
2018-02-25T09:23:38.899Z,19.20
2018-02-25T09:26:08.524Z,17.77
2018-02-25T09:28:38.102Z,17.17
2018-02-25T09:31:09.248Z,22.50
2018-02-25T09:33:39.747Z,20.07
2018-02-25T09:38:44.532Z,21.17
2018-02-25T09:41:14.084Z,22.47
2018-02-25T09:43:44.515Z,20.33
2018-02-25T09:46:14.158Z,18.13
2018-02-25T09:48:43.687Z,18.20
2018-02-25T09:51:13.263Z,18.70
2018-02-25T09:53:42.823Z,15.70
2018-02-25T09:56:12.343Z,17.73
2018-02-25T09:58:41.999Z,17.83
2018-02-25T10:01:11.592Z,17.20
2018-02-25T10:03:41.821Z,16.83
2018-02-25T10:06:11.425Z,17.20
2018-02-25T10:08:41.037Z,17.60
2018-02-25T10:11:11.044Z,19.00
2018-02-25T10:13:40.727Z,20.77
2018-02-25T10:16:11.251Z,23.80
2018-02-25T10:18:40.818Z,20.93
2018-02-25T10:21:10.421Z,20.90
2018-02-25T10:23:39.952Z,23.20
2018-02-25T10:26:09.532Z,23.40
2018-02-25T10:28:39.083Z,23.93
2018-02-25T10:31:08.621Z,22.60
2018-02-25T10:33:38.180Z,20.57
2018-02-25T10:36:07.761Z,21.50
2018-02-25T10:38:37.797Z,19.00
2018-02-25T10:41:07.377Z,21.20
2018-02-25T10:43:38.291Z,23.00
2018-02-25T10:46:07.873Z,22.10
2018-02-25T10:48:37.427Z,22.23
2018-02-25T10:51:07.002Z,22.23
2018-02-25T10:53:49.753Z,20.57
2018-02-25T10:56:19.259Z,22.13
2018-02-25T10:58:48.771Z,21.53
2018-02-25T11:01:18.322Z,21.83
2018-02-25T11:03:47.870Z,21.50
2018-02-25T11:06:17.534Z,22.10
2018-02-25T11:09:00.275Z,21.20
2018-02-25T11:11:30.004Z,21.97
2018-02-25T11:13:59.581Z,22.37
2018-02-25T11:16:30.704Z,23.10
2018-02-25T11:19:02.169Z,22.97
2018-02-25T11:21:31.729Z,24.07
2018-02-25T11:24:01.308Z,24.37
2018-02-25T11:26:45.686Z,23.10
2018-02-25T11:29:28.812Z,23.60
2018-02-25T11:31:58.648Z,24.30
2018-02-25T11:34:29.344Z,23.03
2018-02-25T11:37:06.476Z,22.47
2018-02-25T11:39:48.079Z,23.50
2018-02-25T11:42:17.641Z,22.00
2018-02-25T11:44:47.300Z,22.17
2018-02-25T11:47:17.132Z,21.80
2018-02-25T11:49:46.744Z,21.30
2018-02-25T11:52:16.323Z,22.33
2018-02-25T11:54:46.609Z,22.90
2018-02-25T11:57:31.420Z,21.17
2018-02-25T12:00:00.954Z,21.57
2018-02-25T12:02:30.550Z,22.07
2018-02-25T12:05:00.084Z,20.67
2018-02-25T12:07:29.604Z,22.70
2018-02-25T12:09:59.402Z,23.00
2018-02-25T12:12:29.548Z,21.47
2018-02-25T12:14:59.612Z,22.47
2018-02-25T12:17:29.039Z,21.97
2018-02-25T12:20:04.821Z,22.87
2018-02-25T12:22:34.935Z,24.90
2018-02-25T12:25:04.535Z,26.27
2018-02-25T12:27:34.191Z,27.10
2018-02-25T12:30:03.822Z,28.07
2018-02-25T12:32:42.409Z,27.30
2018-02-25T12:35:12.286Z,25.80
2018-02-25T12:37:42.036Z,23.17
2018-02-25T12:40:11.797Z,24.77
2018-02-25T12:42:41.359Z,24.90
2018-02-25T12:45:10.964Z,23.60
2018-02-25T12:47:42.300Z,22.90
2018-02-25T12:50:11.907Z,22.70
2018-02-25T12:52:41.888Z,23.33
2018-02-25T12:55:11.693Z,21.27
2018-02-25T12:57:41.993Z,24.43
2018-02-25T13:00:11.591Z,24.10
2018-02-25T13:02:41.423Z,31.47
2018-02-25T13:05:12.996Z,26.00
2018-02-25T13:07:44.082Z,44.10
2018-02-25T13:10:14.026Z,25.00
2018-02-25T13:12:43.890Z,26.30
2018-02-25T13:15:13.588Z,24.07
2018-02-25T13:17:43.147Z,22.67
2018-02-25T13:20:12.716Z,23.20
2018-02-25T13:22:42.374Z,22.53
2018-02-25T13:25:12.017Z,21.53
2018-02-25T13:27:42.525Z,21.90
2018-02-25T13:30:18.298Z,23.67
2018-02-25T13:32:47.921Z,23.43
2018-02-25T13:35:18.844Z,28.97
2018-02-25T13:37:56.434Z,26.10
2018-02-25T13:40:33.533Z,25.57
2018-02-25T13:43:03.210Z,29.17
2018-02-25T13:45:32.795Z,24.83
2018-02-25T13:48:03.377Z,39.53
2018-02-25T13:50:32.972Z,32.27
2018-02-25T13:53:02.576Z,33.00
2018-02-25T13:55:32.181Z,32.63
2018-02-25T13:58:01.686Z,31.60
2018-02-25T14:00:31.203Z,22.03
2018-02-25T14:03:00.742Z,21.20
2018-02-25T14:05:30.303Z,21.30
2018-02-25T14:07:59.957Z,22.60
2018-02-25T14:10:29.476Z,19.10
2018-02-25T14:12:59.182Z,19.10
2018-02-25T14:15:28.962Z,19.40
2018-02-25T14:18:07.822Z,18.57
2018-02-25T14:20:37.429Z,19.43
2018-02-25T14:23:07.976Z,16.47
2018-02-25T14:25:37.984Z,18.83
2018-02-25T14:28:08.075Z,19.87
2018-02-25T14:30:37.659Z,19.70
2018-02-25T14:33:07.234Z,20.73
2018-02-25T14:35:36.771Z,19.43
2018-02-25T14:38:06.401Z,18.70
2018-02-25T14:40:36.465Z,18.73
2018-02-25T14:43:06.333Z,17.10
2018-02-25T14:45:35.953Z,19.10
2018-02-25T14:48:12.891Z,20.47
2018-02-25T14:50:42.592Z,20.40
2018-02-25T14:53:12.182Z,16.00
2018-02-25T14:55:42.196Z,17.93
2018-02-25T14:58:11.785Z,18.20
2018-02-25T15:00:56.533Z,17.70
2018-02-25T15:06:22.536Z,18.33
2018-02-25T15:08:52.188Z,16.50
2018-02-25T15:11:22.706Z,18.00
2018-02-25T15:13:52.206Z,14.90
2018-02-25T15:16:21.769Z,15.80
2018-02-25T15:18:51.311Z,18.10
2018-02-25T15:21:21.535Z,16.57
2018-02-25T15:23:51.076Z,18.63
2018-02-25T15:26:20.668Z,16.10
2018-02-25T15:28:50.226Z,15.57
2018-02-25T15:31:19.732Z,17.00
2018-02-25T15:33:52.216Z,17.30
2018-02-25T15:36:21.761Z,15.13
2018-02-25T15:38:51.262Z,16.43
2018-02-25T15:41:20.794Z,16.10
2018-02-25T15:43:56.723Z,16.40
2018-02-25T15:46:26.295Z,14.77
2018-02-25T15:48:55.814Z,13.30
2018-02-25T15:51:25.398Z,14.97
2018-02-25T15:53:54.957Z,14.70
2018-02-25T15:56:26.338Z,16.07
2018-02-25T15:58:56.214Z,20.73
2018-02-25T16:01:25.909Z,17.13
2018-02-25T16:03:56.503Z,13.70
2018-02-25T16:06:26.018Z,10.67
2018-02-25T16:12:16.803Z,11.20
2018-02-25T16:27:44.557Z,10.80
2018-02-25T16:30:14.165Z,12.93
2018-02-25T16:36:03.948Z,12.37
2018-02-25T16:43:41.570Z,12.47
2018-02-25T16:48:53.353Z,11.83
2018-02-25T16:51:22.934Z,11.13
2018-02-25T16:53:52.543Z,10.97
2018-02-25T16:56:22.550Z,9.50
2018-02-25T16:58:52.119Z,10.60
2018-02-25T17:01:21.772Z,9.67
2018-02-25T17:03:51.630Z,11.60
2018-02-25T17:06:21.225Z,11.77
2018-02-25T17:08:51.039Z,11.43
2018-02-25T17:11:21.618Z,10.43
2018-02-25T17:13:52.150Z,11.10
2018-02-25T17:16:22.149Z,10.60
2018-02-25T17:18:52.320Z,11.17
2018-02-25T17:21:21.926Z,10.20
2018-02-25T17:24:01.105Z,8.53
2018-02-25T17:26:31.746Z,8.57
2018-02-25T17:29:01.376Z,10.20
2018-02-25T17:31:31.277Z,8.43
2018-02-25T17:34:00.846Z,9.90
2018-02-25T17:36:31.957Z,9.63
2018-02-25T17:39:02.642Z,9.40
2018-02-25T17:41:32.487Z,10.30
2018-02-25T17:44:06.980Z,10.13
2018-02-25T17:46:36.639Z,10.13
2018-02-25T17:51:47.033Z,10.23
2018-02-25T17:54:18.216Z,11.10
2018-02-25T17:56:47.814Z,11.40
2018-02-25T17:59:17.994Z,10.63
2018-02-25T18:01:47.730Z,11.70
2018-02-25T18:04:18.837Z,10.93
2018-02-25T18:09:22.650Z,12.50
2018-02-25T18:14:54.829Z,11.83
2018-02-25T18:17:33.276Z,12.20
2018-02-25T18:20:03.316Z,11.27
2018-02-25T18:22:33.884Z,10.60
2018-02-25T18:25:03.655Z,11.17
2018-02-25T18:27:33.642Z,11.00
2018-02-25T18:30:05.574Z,11.00
2018-02-25T18:32:35.186Z,11.27
2018-02-25T18:35:11.416Z,10.43
2018-02-25T18:37:42.384Z,9.43
2018-02-25T18:40:12.775Z,9.97
2018-02-25T18:42:42.893Z,10.20
2018-02-25T18:45:13.337Z,9.97
2018-02-25T18:47:43.079Z,10.90
2018-02-25T18:50:13.523Z,10.17
2018-02-25T18:52:43.384Z,10.50
2018-02-25T18:57:47.159Z,9.50
2018-02-25T19:02:52.387Z,8.23
2018-02-25T19:05:22.373Z,9.57
2018-02-25T19:07:53.738Z,9.80
2018-02-25T19:12:57.883Z,9.07
2018-02-25T19:15:28.939Z,8.27
2018-02-25T19:18:00.888Z,8.93
2018-02-25T19:20:30.476Z,8.40
2018-02-25T19:23:12.695Z,9.90
2018-02-25T19:25:44.419Z,10.57
2018-02-25T19:28:14.324Z,10.17
2018-02-25T19:30:46.401Z,11.13
2018-02-25T19:33:24.055Z,10.03
2018-02-25T19:35:59.359Z,9.97
2018-02-25T19:38:34.871Z,9.47
2018-02-25T19:41:20.530Z,9.80
2018-02-25T19:43:50.974Z,11.20
2018-02-25T19:46:34.047Z,10.00
2018-02-25T19:49:17.720Z,9.87
2018-02-25T19:51:55.017Z,12.47
2018-02-25T19:54:25.281Z,14.80
2018-02-25T20:06:46.174Z,11.90
2018-02-25T20:11:59.565Z,12.60
2018-02-25T20:14:29.196Z,13.30
2018-02-25T20:17:00.309Z,13.97
2018-02-25T20:19:37.335Z,12.80
2018-02-25T20:24:53.373Z,12.00
2018-02-25T20:27:24.909Z,12.10
2018-02-25T20:29:59.943Z,10.70
2018-02-25T20:37:53.066Z,13.90
2018-02-25T20:43:06.292Z,14.40
2018-02-25T20:51:35.947Z,18.03
2018-02-25T20:54:06.237Z,16.00
2018-02-25T21:02:53.911Z,11.80
2018-02-25T21:05:24.227Z,14.10
2018-02-25T21:07:54.887Z,12.67
2018-02-25T21:10:25.522Z,11.50
2018-02-25T21:12:55.303Z,10.90
2018-02-25T21:15:25.010Z,11.50
2018-02-25T21:17:54.656Z,10.13
2018-02-25T21:20:24.389Z,10.37
2018-02-25T21:23:02.071Z,11.23
2018-02-25T21:25:31.691Z,10.73
2018-02-25T21:28:01.878Z,10.37
2018-02-25T21:30:31.707Z,9.90
2018-02-25T21:33:01.583Z,10.83
2018-02-25T21:35:31.307Z,10.17
2018-02-25T21:45:53.005Z,9.90
2018-02-25T21:48:22.912Z,8.60
2018-02-25T21:50:52.484Z,9.70
2018-02-25T21:53:22.155Z,9.50
2018-02-25T21:55:57.977Z,9.23
2018-02-25T21:58:33.256Z,9.30
2018-02-25T22:01:16.777Z,8.80
2018-02-25T22:03:46.435Z,8.00
2018-02-25T22:06:24.400Z,7.70
2018-02-25T22:08:53.991Z,9.30
2018-02-25T22:11:23.624Z,10.20
2018-02-25T22:13:53.232Z,7.53
2018-02-25T22:16:37.792Z,7.57
2018-02-25T22:19:11.300Z,8.50
2018-02-25T22:21:41.015Z,9.13
2018-02-25T22:24:11.928Z,17.93
2018-02-25T22:26:53.652Z,18.03
2018-02-25T22:29:25.333Z,22.30
2018-02-25T22:31:55.372Z,15.67
2018-02-25T22:34:26.935Z,22.83
2018-02-25T22:36:56.560Z,23.10
2018-02-25T22:39:26.935Z,23.67
2018-02-25T22:41:56.533Z,23.17
2018-02-25T22:44:26.155Z,15.10
2018-02-25T22:47:00.396Z,20.50
2018-02-25T22:49:30.056Z,25.50
2018-02-25T22:52:00.577Z,26.63
2018-02-25T22:54:38.016Z,26.73
2018-02-25T22:57:07.755Z,25.90
2018-02-25T22:59:37.320Z,26.67
2018-02-25T23:02:19.809Z,29.37
2018-02-25T23:04:49.708Z,26.97
2018-02-25T23:07:19.313Z,27.67
2018-02-25T23:09:56.238Z,28.17
2018-02-25T23:12:32.370Z,28.50
2018-02-25T23:15:02.167Z,29.10
2018-02-25T23:17:31.811Z,26.90
2018-02-25T23:20:01.868Z,28.87
2018-02-25T23:22:31.826Z,27.43
2018-02-25T23:25:02.103Z,27.90
2018-02-25T23:27:44.142Z,27.50
2018-02-25T23:30:20.895Z,28.93
2018-02-25T23:32:50.464Z,26.97
2018-02-25T23:35:20.023Z,27.53
2018-02-25T23:37:49.575Z,27.70
2018-02-25T23:40:19.170Z,27.07
2018-02-25T23:42:48.928Z,29.43
2018-02-25T23:45:18.507Z,29.83
2018-02-25T23:47:53.576Z,28.60
2018-02-25T23:50:23.338Z,27.83
2018-02-25T23:52:52.924Z,26.67
2018-02-25T23:55:22.536Z,27.90
2018-02-25T23:57:52.108Z,29.90
